Time;durP1;ratioP1;P1;durP2;ratioP2;P2;SDS_P1;SDS_P2;PMS_P1;PMS_P2;Temp;Humidity;BMP_temperature;BMP_pressure;BME280_temperature;BME280_humidity;BME280_pressure;Samples;Min_cycle;Max_cycle;Signal;HPM_P1;HPM_P2
2023/07/01 00:01:36;;;;;;;3.40;3.00;;;19.70;1.00;;;;;;5076005;28;20176;-66
2023/07/01 00:04:02;;;;;;;5.72;3.35;;;19.60;1.00;;;;;;5076093;28;20176;-66
2023/07/01 00:06:27;;;;;;;6.68;3.22;;;19.60;1.00;;;;;;5076109;28;20654;-66
2023/07/01 00:08:54;;;;;;;3.50;3.20;;;19.50;1.00;;;;;;5075750;28;20260;-66
2023/07/01 00:11:20;;;;;;;3.15;2.85;;;19.50;1.00;;;;;;5076188;28;20177;-68
2023/07/01 00:13:46;;;;;;;5.07;3.30;;;19.50;1.00;;;;;;5076004;28;20199;-68
2023/07/01 00:16:13;;;;;;;9.23;3.20;;;19.50;1.00;;;;;;5075851;28;20612;-67
2023/07/01 00:18:42;;;;;;;5.55;2.95;;;19.40;1.00;;;;;;5075712;28;20261;-66
2023/07/01 00:21:09;;;;;;;5.25;3.15;;;19.40;1.00;;;;;;5075649;28;20257;-67
2023/07/01 00:23:35;;;;;;;6.00;2.78;;;19.20;1.00;;;;;;5075432;28;20169;-66
2023/07/01 00:26:01;;;;;;;4.65;2.67;;;19.10;4.50;;;;;;5075719;28;20173;-67
2023/07/01 00:28:26;;;;;;;6.28;2.92;;;19.00;17.10;;;;;;5075562;28;20188;-67
2023/07/01 00:30:52;;;;;;;4.88;3.05;;;18.70;28.90;;;;;;5075519;28;20172;-67
2023/07/01 00:33:17;;;;;;;5.78;3.35;;;18.60;43.30;;;;;;5075580;28;20200;-66
2023/07/01 00:35:43;;;;;;;3.35;2.72;;;18.50;54.40;;;;;;5075588;28;20255;-67
2023/07/01 00:38:09;;;;;;;3.33;2.17;;;18.40;57.90;;;;;;5074748;28;20696;-66
2023/07/01 00:40:34;;;;;;;8.13;3.13;;;18.40;54.50;;;;;;5075428;28;20168;-65
2023/07/01 00:43:00;;;;;;;4.87;3.30;;;18.30;61.00;;;;;;5075432;28;20317;-65
2023/07/01 00:45:26;;;;;;;4.87;2.97;;;18.20;66.20;;;;;;5075287;28;20168;-67
2023/07/01 00:47:52;;;;;;;3.30;3.00;;;18.10;75.90;;;;;;5075344;28;20164;-67
2023/07/01 00:50:17;;;;;;;3.73;3.10;;;18.00;83.30;;;;;;5057262;28;20175;-67
2023/07/01 00:52:44;;;;;;;3.83;3.03;;;18.00;94.70;;;;;;5074994;28;20176;-66
2023/07/01 00:55:11;;;;;;;3.23;2.93;;;17.90;93.60;;;;;;5075158;28;20172;-66
2023/07/01 00:57:37;;;;;;;5.33;2.90;;;17.80;92.40;;;;;;5074843;28;20205;-66
2023/07/01 01:00:11;;;;;;;8.40;3.43;;;17.80;91.70;;;;;;5074973;28;20164;-67
2023/07/01 01:03:07;;;;;;;5.10;3.00;;;17.80;94.30;;;;;;5075009;28;20187;-66
2023/07/01 01:06:03;;;;;;;5.83;3.00;;;17.90;90.10;;;;;;5074256;28;20532;-66
2023/07/01 01:08:41;;;;;;;3.73;3.33;;;18.00;86.40;;;;;;5039036;28;20184;-67
2023/07/01 01:11:08;;;;;;;4.33;3.07;;;18.00;83.20;;;;;;5074847;28;20229;-67
2023/07/01 01:13:35;;;;;;;5.03;2.90;;;18.00;82.40;;;;;;5074930;28;20168;-67
2023/07/01 01:16:02;;;;;;;5.47;3.20;;;17.90;92.30;;;;;;5074820;28;20226;-66
2023/07/01 01:18:31;;;;;;;5.67;2.77;;;17.90;95.20;;;;;;5074559;28;20220;-67
2023/07/01 01:20:58;;;;;;;4.10;2.80;;;17.80;97.20;;;;;;5074288;28;20192;-66
2023/07/01 01:23:32;;;;;;;4.27;2.80;;;17.80;99.90;;;;;;5074728;28;20177;-68
2023/07/01 01:26:06;;;;;;;6.60;3.17;;;17.70;99.90;;;;;;5074689;28;20632;-67
2023/07/01 01:28:35;;;;;;;3.93;2.83;;;17.70;99.90;;;;;;5074613;28;20175;-68
2023/07/01 01:31:01;;;;;;;4.20;2.67;;;17.60;99.90;;;;;;5074383;28;20215;-66
2023/07/01 01:33:27;;;;;;;6.13;2.93;;;17.60;99.90;;;;;;5074280;28;20267;-67
2023/07/01 01:36:06;;;;;;;4.90;2.97;;;17.60;99.90;;;;;;5074240;28;20272;-68
2023/07/01 01:38:36;;;;;;;6.00;2.97;;;17.50;99.90;;;;;;5073985;28;20232;-66
2023/07/01 01:41:07;;;;;;;3.87;2.93;;;17.60;99.90;;;;;;5074278;28;20218;-66
2023/07/01 01:43:48;;;;;;;4.03;3.00;;;17.60;99.90;;;;;;5074216;28;20233;-68
2023/07/01 01:46:15;;;;;;;3.50;3.00;;;17.60;99.90;;;;;;5074156;28;20219;-66
2023/07/01 01:48:41;;;;;;;4.53;3.10;;;17.60;99.90;;;;;;5074132;28;20640;-68
2023/07/01 01:51:08;;;;;;;4.60;2.97;;;17.60;99.90;;;;;;5073734;28;20246;-68
2023/07/01 01:53:36;;;;;;;5.83;3.17;;;17.50;99.90;;;;;;5074076;28;20179;-66
2023/07/01 01:56:03;;;;;;;4.53;3.20;;;17.40;99.90;;;;;;5073988;28;20204;-68
2023/07/01 01:58:29;;;;;;;4.70;3.00;;;17.20;99.90;;;;;;5073559;28;20208;-66
2023/07/01 02:00:55;;;;;;;6.33;3.93;;;17.20;99.90;;;;;;5074056;28;20168;-67
2023/07/01 02:03:21;;;;;;;4.27;3.17;;;17.20;99.90;;;;;;5073547;28;20177;-66
2023/07/01 02:05:46;;;;;;;3.10;2.60;;;17.10;99.90;;;;;;5074088;28;20251;-66
2023/07/01 02:08:12;;;;;;;4.60;3.30;;;17.00;99.90;;;;;;5073700;28;20174;-67
2023/07/01 02:10:38;;;;;;;5.53;3.43;;;16.90;99.90;;;;;;5073617;28;20184;-66
2023/07/01 02:13:05;;;;;;;4.83;3.30;;;16.80;99.90;;;;;;5073527;28;20184;-65
2023/07/01 02:15:31;;;;;;;3.50;3.20;;;16.80;99.90;;;;;;5073596;28;20200;-67
2023/07/01 02:17:56;;;;;;;4.00;3.70;;;16.80;99.90;;;;;;5073273;28;20250;-66
2023/07/01 02:20:22;;;;;;;3.80;3.50;;;16.70;99.90;;;;;;5072633;28;20679;-67
2023/07/01 02:22:48;;;;;;;5.83;3.80;;;16.80;99.90;;;;;;5073542;28;20603;-65
2023/07/01 02:25:14;;;;;;;3.87;3.33;;;16.80;99.90;;;;;;5073416;28;20185;-67
2023/07/01 02:27:40;;;;;;;4.43;3.70;;;16.80;99.90;;;;;;5073219;28;20275;-67
2023/07/01 02:30:06;;;;;;;4.63;3.43;;;16.60;99.90;;;;;;5073396;28;20256;-66
2023/07/01 02:32:32;;;;;;;3.70;3.50;;;16.50;99.90;;;;;;5055196;28;20618;-65
2023/07/01 02:34:58;;;;;;;5.70;3.80;;;16.50;99.90;;;;;;5073486;28;20248;-66
2023/07/01 02:37:24;;;;;;;4.27;3.87;;;16.50;99.90;;;;;;5073341;28;20211;-67
2023/07/01 02:39:49;;;;;;;4.80;3.80;;;16.50;99.90;;;;;;5073196;28;20224;-67
2023/07/01 02:42:19;;;;;;;4.13;3.73;;;16.50;99.90;;;;;;5073106;28;20643;-66
2023/07/01 02:44:46;;;;;;;4.13;3.67;;;16.50;99.90;;;;;;5072907;28;20176;-65
2023/07/01 02:47:12;;;;;;;4.10;3.57;;;16.40;99.90;;;;;;5072620;28;20654;-65
2023/07/01 02:49:40;;;;;;;4.50;4.03;;;16.30;99.90;;;;;;5073313;28;20184;-65
2023/07/01 02:52:09;;;;;;;4.40;4.00;;;16.40;99.90;;;;;;5073067;28;20211;-65
2023/07/01 02:54:39;;;;;;;7.83;4.23;;;16.30;99.90;;;;;;5072880;28;20635;-65
2023/07/01 02:57:08;;;;;;;4.50;4.10;;;16.40;99.90;;;;;;5073185;28;20286;-65
2023/07/01 02:59:36;;;;;;;3.53;3.27;;;16.40;99.90;;;;;;5073523;28;20219;-65
2023/07/01 03:02:05;;;;;;;3.90;3.60;;;16.30;99.90;;;;;;5072879;28;20184;-65
2023/07/01 03:04:32;;;;;;;3.97;3.43;;;16.40;99.90;;;;;;5073122;28;20164;-66
2023/07/01 03:06:58;;;;;;;3.87;3.63;;;16.30;99.90;;;;;;5072893;28;20245;-66
2023/07/01 03:09:24;;;;;;;6.07;3.90;;;16.40;99.90;;;;;;5072934;28;20691;-66
2023/07/01 03:11:49;;;;;;;5.40;3.60;;;16.40;99.90;;;;;;5072728;28;20498;-66
2023/07/01 03:14:15;;;;;;;3.70;3.37;;;16.40;99.90;;;;;;5073038;28;20207;-66
2023/07/01 03:16:41;;;;;;;4.47;3.63;;;16.40;99.90;;;;;;5072559;28;20501;-66
2023/07/01 03:19:08;;;;;;;4.27;3.50;;;16.40;99.90;;;;;;5072545;28;20216;-66
2023/07/01 03:21:34;;;;;;;4.43;3.70;;;16.50;99.90;;;;;;5072508;28;20197;-66
2023/07/01 03:24:00;;;;;;;5.50;3.87;;;16.40;99.90;;;;;;5072930;28;20259;-65
2023/07/01 03:26:27;;;;;;;3.93;3.63;;;16.40;99.90;;;;;;5072949;28;20164;-65
2023/07/01 03:28:53;;;;;;;3.87;3.43;;;16.40;99.90;;;;;;5072896;28;20259;-65
2023/07/01 03:31:19;;;;;;;4.97;3.43;;;16.40;99.90;;;;;;5072996;28;20169;-66
2023/07/01 03:33:45;;;;;;;4.27;3.53;;;16.30;99.90;;;;;;5076488;28;20270;-67
2023/07/01 03:36:11;;;;;;;3.57;3.27;;;16.30;99.90;;;;;;5076358;28;20276;-67
2023/07/01 03:38:37;;;;;;;5.50;4.00;;;16.30;99.90;;;;;;5076262;28;20301;-66
2023/07/01 03:41:02;;;;;;;3.57;3.27;;;16.30;99.90;;;;;;5076548;28;20172;-66
2023/07/01 03:43:28;;;;;;;4.67;3.37;;;16.30;99.90;;;;;;5076361;28;20181;-65
2023/07/01 03:45:56;;;;;;;5.97;3.80;;;16.30;99.90;;;;;;5075770;28;20191;-66
2023/07/01 03:48:22;;;;;;;3.70;3.40;;;16.30;99.90;;;;;;5075913;28;20253;-65
2023/07/01 03:50:48;;;;;;;4.40;3.80;;;16.30;99.90;;;;;;5076158;28;20165;-65
2023/07/01 03:53:13;;;;;;;5.27;3.87;;;16.20;99.90;;;;;;5076057;28;20197;-65
2023/07/01 03:55:39;;;;;;;4.77;4.13;;;16.20;99.90;;;;;;5076112;28;20243;-66
2023/07/01 03:58:04;;;;;;;4.47;4.10;;;16.30;99.90;;;;;;5075841;28;20165;-66
2023/07/01 04:00:30;;;;;;;5.60;4.20;;;16.30;99.90;;;;;;5075568;28;20230;-65
2023/07/01 04:03:02;;;;;;;4.27;3.97;;;16.40;99.90;;;;;;5075540;28;20180;-65
2023/07/01 04:05:28;;;;;;;5.07;4.10;;;16.30;99.90;;;;;;5075394;28;20234;-65
2023/07/01 04:07:54;;;;;;;4.40;4.00;;;16.40;99.90;;;;;;5076091;28;20201;-66
2023/07/01 04:10:19;;;;;;;4.07;3.67;;;16.40;99.90;;;;;;5075836;28;20169;-65
2023/07/01 04:12:45;;;;;;;6.13;3.73;;;16.30;99.90;;;;;;5075813;28;20226;-65
2023/07/01 04:15:11;;;;;;;5.37;4.30;;;16.40;99.90;;;;;;5075508;28;20165;-65
2023/07/01 04:17:42;;;;;;;4.53;4.20;;;16.50;99.90;;;;;;5075723;28;20161;-65
2023/07/01 04:20:09;;;;;;;5.10;3.87;;;16.40;99.90;;;;;;5075091;28;20223;-66
2023/07/01 04:22:35;;;;;;;6.47;4.33;;;16.50;99.90;;;;;;5075627;28;20165;-65
2023/07/01 04:25:01;;;;;;;4.10;3.80;;;16.50;99.90;;;;;;5075573;28;20221;-65
2023/07/01 04:27:27;;;;;;;4.50;4.10;;;16.40;99.90;;;;;;5075198;28;20255;-66
2023/07/01 04:29:52;;;;;;;4.17;3.50;;;16.40;99.90;;;;;;5075206;28;20206;-66
2023/07/01 04:32:18;;;;;;;6.87;4.07;;;16.50;99.90;;;;;;5075664;28;20169;-66
2023/07/01 04:34:44;;;;;;;4.97;4.07;;;16.40;99.90;;;;;;5075199;28;20175;-66
2023/07/01 04:37:10;;;;;;;4.60;4.00;;;16.40;99.90;;;;;;5075473;28;20222;-66
2023/07/01 04:39:35;;;;;;;4.97;4.57;;;16.40;99.90;;;;;;5075236;28;20252;-64
2023/07/01 04:42:02;;;;;;;3.90;3.60;;;16.40;99.90;;;;;;5075130;28;20616;-66
2023/07/01 04:44:28;;;;;;;4.30;4.00;;;16.40;99.90;;;;;;5073586;28;20177;-66
2023/07/01 04:46:53;;;;;;;4.43;3.70;;;16.30;99.90;;;;;;5075135;28;20171;-66
2023/07/01 04:49:19;;;;;;;3.70;3.50;;;16.40;99.90;;;;;;5074868;28;20697;-67
2023/07/01 04:51:45;;;;;;;4.40;3.80;;;16.30;99.90;;;;;;5074826;28;20173;-66
2023/07/01 04:54:10;;;;;;;3.30;3.10;;;16.40;99.90;;;;;;5075083;28;20667;-66
2023/07/01 04:56:36;;;;;;;3.50;3.23;;;16.40;99.90;;;;;;5074832;28;20176;-67
2023/07/01 04:59:02;;;;;;;3.30;3.10;;;16.50;99.90;;;;;;5074578;28;20176;-66
2023/07/01 05:01:28;;;;;;;3.50;3.30;;;16.50;99.90;;;;;;5074796;28;20173;-66
2023/07/01 05:03:54;;;;;;;3.63;3.33;;;16.60;99.90;;;;;;5074859;28;20175;-67
2023/07/01 05:06:20;;;;;;;3.13;2.93;;;16.70;99.90;;;;;;5074548;28;20168;-67
2023/07/01 05:08:46;;;;;;;2.97;2.77;;;16.60;99.90;;;;;;5074687;28;20208;-66
2023/07/01 05:11:12;;;;;;;2.77;2.50;;;16.60;99.90;;;;;;5074833;28;20568;-67
2023/07/01 05:13:37;;;;;;;3.00;2.77;;;16.60;99.90;;;;;;5074326;28;20251;-65
2023/07/01 05:16:03;;;;;;;2.90;2.70;;;16.60;99.90;;;;;;5074329;28;20171;-66
2023/07/01 05:18:29;;;;;;;2.80;2.60;;;16.70;99.90;;;;;;5074828;28;20176;-66
2023/07/01 05:20:55;;;;;;;2.90;2.70;;;16.70;99.90;;;;;;5073711;28;20200;-66
2023/07/01 05:23:21;;;;;;;2.27;2.17;;;16.70;99.90;;;;;;5074786;28;20169;-65
2023/07/01 05:25:46;;;;;;;2.60;2.40;;;16.70;99.90;;;;;;5073713;28;20176;-66
2023/07/01 05:28:12;;;;;;;2.60;2.50;;;16.80;99.90;;;;;;5073739;28;20240;-66
2023/07/01 05:30:38;;;;;;;3.23;2.40;;;16.80;99.90;;;;;;5074945;28;20177;-66
2023/07/01 05:33:04;;;;;;;2.30;2.20;;;16.80;99.90;;;;;;5074308;28;20248;-66
2023/07/01 05:35:29;;;;;;;2.60;2.40;;;16.80;99.90;;;;;;5073915;28;20165;-67
2023/07/01 05:37:55;;;;;;;2.53;2.30;;;16.80;99.90;;;;;;5073941;28;20211;-66
2023/07/01 05:40:21;;;;;;;2.93;2.40;;;16.90;99.90;;;;;;5074008;28;20510;-66
2023/07/01 05:42:46;;;;;;;2.67;2.53;;;16.90;99.90;;;;;;5073725;28;20176;-65
2023/07/01 05:45:12;;;;;;;2.83;2.67;;;17.00;99.90;;;;;;5073913;28;20161;-67
2023/07/01 05:47:38;;;;;;;2.40;2.30;;;16.90;99.90;;;;;;5073599;28;20203;-67
2023/07/01 05:50:05;;;;;;;3.00;2.80;;;16.90;99.90;;;;;;5073634;28;20248;-67
2023/07/01 05:52:30;;;;;;;2.73;2.53;;;16.90;99.90;;;;;;5073724;28;20224;-67
2023/07/01 05:54:56;;;;;;;2.80;2.70;;;17.00;99.90;;;;;;5073484;28;20640;-67
2023/07/01 05:57:21;;;;;;;2.90;2.77;;;17.00;99.90;;;;;;5073390;28;20647;-67
2023/07/01 05:59:47;;;;;;;3.13;2.90;;;17.00;99.90;;;;;;5073374;28;20256;-66
2023/07/01 06:02:13;;;;;;;3.13;2.93;;;17.10;99.90;;;;;;5073798;28;20529;-66
2023/07/01 06:04:38;;;;;;;3.10;3.00;;;17.10;99.90;;;;;;5073606;28;20475;-67
2023/07/01 06:07:04;;;;;;;3.10;2.90;;;17.10;99.90;;;;;;5073488;28;20175;-67
2023/07/01 06:09:29;;;;;;;3.23;3.03;;;17.10;99.90;;;;;;5073338;28;20748;-66
2023/07/01 06:11:55;;;;;;;3.20;3.00;;;17.10;99.90;;;;;;5073199;28;20677;-67
2023/07/01 06:14:21;;;;;;;2.90;2.70;;;17.20;99.90;;;;;;5073659;28;20246;-67
2023/07/01 06:16:46;;;;;;;3.17;2.87;;;17.20;99.90;;;;;;5072472;28;20528;-67
2023/07/01 06:19:12;;;;;;;3.20;3.00;;;17.30;99.90;;;;;;5072712;28;20200;-66
2023/07/01 06:21:37;;;;;;;2.80;2.70;;;17.40;99.90;;;;;;5073217;28;20681;-67
2023/07/01 06:24:03;;;;;;;3.47;3.17;;;17.30;99.90;;;;;;5073195;28;20294;-67
2023/07/01 06:26:29;;;;;;;3.00;2.80;;;17.20;99.90;;;;;;5072862;28;20165;-67
2023/07/01 06:28:55;;;;;;;3.20;2.90;;;17.20;99.90;;;;;;5072883;28;20200;-67
2023/07/01 06:31:21;;;;;;;2.87;2.77;;;17.20;99.90;;;;;;5073173;28;20255;-67
2023/07/01 06:33:46;;;;;;;3.27;3.00;;;17.20;99.90;;;;;;5073239;28;20215;-67
2023/07/01 06:36:17;;;;;;;3.33;3.00;;;17.30;99.90;;;;;;5072763;28;20226;-66
2023/07/01 06:38:43;;;;;;;3.30;3.10;;;17.30;99.90;;;;;;5072546;28;20224;-67
2023/07/01 06:41:09;;;;;;;2.97;2.77;;;17.40;99.90;;;;;;5072782;28;20191;-67
2023/07/01 06:43:39;;;;;;;2.70;2.60;;;17.40;99.90;;;;;;5073196;28;20173;-67
2023/07/01 06:46:06;;;;;;;2.70;2.53;;;17.40;99.90;;;;;;5072635;28;20180;-67
2023/07/01 06:48:32;;;;;;;2.77;2.53;;;17.30;99.90;;;;;;5072787;28;20361;-67
2023/07/01 06:50:57;;;;;;;2.67;2.47;;;17.40;99.90;;;;;;5072520;28;20222;-68
2023/07/01 06:53:23;;;;;;;2.13;2.03;;;17.40;99.90;;;;;;5072648;28;20192;-66
2023/07/01 06:55:48;;;;;;;2.27;2.03;;;17.30;99.90;;;;;;5072829;28;20605;-68
2023/07/01 06:58:14;;;;;;;1.83;1.80;;;17.40;99.90;;;;;;5072224;28;20338;-68
2023/07/01 07:00:40;;;;;;;2.20;2.10;;;17.40;99.90;;;;;;5072309;28;20180;-67
2023/07/01 07:03:05;;;;;;;2.00;1.90;;;17.40;99.90;;;;;;5073097;28;20172;-66
2023/07/01 07:05:32;;;;;;;2.40;2.00;;;17.40;99.90;;;;;;5073169;28;20160;-65
2023/07/01 07:07:58;;;;;;;1.83;1.73;;;17.30;99.90;;;;;;5078728;28;20203;-65
2023/07/01 07:10:24;;;;;;;2.10;2.00;;;17.30;99.90;;;;;;5079391;28;20223;-67
2023/07/01 07:12:49;;;;;;;2.60;2.50;;;17.50;99.90;;;;;;5079505;28;20226;-66
2023/07/01 07:15:15;;;;;;;2.33;1.87;;;17.40;99.90;;;;;;5078812;28;20174;-66
2023/07/01 07:17:40;;;;;;;2.27;2.07;;;17.50;99.90;;;;;;5078530;28;20177;-68
2023/07/01 07:20:07;;;;;;;2.17;1.93;;;17.60;99.90;;;;;;5079251;28;20200;-66
2023/07/01 07:22:33;;;;;;;2.10;2.00;;;17.60;99.90;;;;;;5079318;28;20179;-67
2023/07/01 07:24:58;;;;;;;2.00;1.90;;;17.60;99.90;;;;;;5079288;28;20176;-67
2023/07/01 07:27:24;;;;;;;2.20;2.10;;;17.60;99.90;;;;;;5078605;28;20168;-67
2023/07/01 07:29:49;;;;;;;3.23;2.20;;;17.60;99.90;;;;;;5079172;28;20191;-67
2023/07/01 07:32:16;;;;;;;2.50;2.40;;;17.50;99.90;;;;;;5078897;28;20173;-68
2023/07/01 07:34:42;;;;;;;2.17;2.07;;;17.70;99.90;;;;;;5079136;28;20179;-68
2023/07/01 07:37:07;;;;;;;2.33;2.23;;;17.70;99.90;;;;;;5078954;28;20516;-68
2023/07/01 07:39:33;;;;;;;2.03;1.93;;;17.60;99.90;;;;;;5078461;28;20231;-68
2023/07/01 07:41:59;;;;;;;2.43;2.30;;;17.70;99.90;;;;;;5078680;28;20529;-67
2023/07/01 07:44:25;;;;;;;2.47;2.30;;;17.70;99.90;;;;;;5079103;28;20172;-67
2023/07/01 07:46:50;;;;;;;3.10;2.70;;;17.60;99.90;;;;;;5078951;28;20172;-67
2023/07/01 07:49:16;;;;;;;3.20;3.00;;;17.70;99.90;;;;;;5079158;28;20854;-68
2023/07/01 07:51:42;;;;;;;3.40;3.20;;;17.70;99.90;;;;;;5077874;28;20184;-67
2023/07/01 07:54:08;;;;;;;3.80;3.50;;;17.80;99.90;;;;;;5078486;28;20181;-67
2023/07/01 07:56:33;;;;;;;3.77;3.57;;;17.90;99.90;;;;;;5078695;28;20465;-68
2023/07/01 07:58:59;;;;;;;3.87;3.67;;;17.80;99.90;;;;;;5078478;28;20607;-68
2023/07/01 08:01:24;;;;;;;4.30;3.90;;;18.00;99.90;;;;;;5078854;28;20217;-68
2023/07/01 08:03:50;;;;;;;3.77;3.50;;;18.00;99.90;;;;;;5079072;28;20172;-68
2023/07/01 08:06:16;;;;;;;3.45;3.17;;;18.00;99.90;;;;;;5077889;28;20589;-68
2023/07/01 08:08:42;;;;;;;3.10;2.90;;;18.00;99.90;;;;;;5060131;28;20573;-68
2023/07/01 08:11:07;;;;;;;3.10;3.00;;;18.00;99.90;;;;;;5078728;28;20176;-68
2023/07/01 08:13:33;;;;;;;3.17;2.97;;;18.10;99.90;;;;;;5078995;28;20184;-68
2023/07/01 08:15:59;;;;;;;3.20;3.10;;;18.20;99.90;;;;;;5078712;28;20606;-68
2023/07/01 08:18:24;;;;;;;3.23;2.80;;;18.20;99.90;;;;;;5058624;28;20177;-68
2023/07/01 08:20:50;;;;;;;2.40;2.30;;;18.20;99.90;;;;;;5074669;28;20288;-67
2023/07/01 08:23:16;;;;;;;1.80;1.70;;;18.20;99.90;;;;;;5075443;28;20527;-67
2023/07/01 08:25:43;;;;;;;1.80;1.70;;;18.20;99.90;;;;;;5075371;28;20180;-67
2023/07/01 08:28:09;;;;;;;2.53;1.67;;;18.40;99.90;;;;;;5075268;28;20212;-69
2023/07/01 08:30:35;;;;;;;1.60;1.50;;;18.50;99.90;;;;;;5074583;28;20583;-70
2023/07/01 08:33:01;;;;;;;1.60;1.50;;;18.60;99.90;;;;;;5075679;28;20238;-69
2023/07/01 08:35:28;;;;;;;1.35;1.35;;;18.60;99.90;;;;;;5075146;28;20176;-69
2023/07/01 08:37:53;;;;;;;1.65;1.55;;;18.80;99.90;;;;;;5075177;28;20184;-68
2023/07/01 08:40:19;;;;;;;1.25;1.17;;;18.70;99.90;;;;;;5074769;28;20182;-68
2023/07/01 08:42:50;;;;;;;1.17;1.17;;;18.80;99.90;;;;;;5075224;28;20612;-68
2023/07/01 08:45:22;;;;;;;1.73;1.70;;;18.80;99.90;;;;;;5075162;28;20213;-68
2023/07/01 08:47:49;;;;;;;1.85;1.75;;;18.70;99.90;;;;;;5075018;28;20290;-67
2023/07/01 08:50:19;;;;;;;1.98;1.88;;;18.60;99.90;;;;;;5074593;28;20199;-68
2023/07/01 08:52:47;;;;;;;1.60;1.50;;;18.70;99.90;;;;;;5075120;28;20173;-68
2023/07/01 08:55:13;;;;;;;2.10;2.00;;;18.70;99.90;;;;;;5074331;28;20252;-67
2023/07/01 08:57:39;;;;;;;2.47;1.90;;;18.90;99.90;;;;;;5074550;28;20173;-68
2023/07/01 09:00:07;;;;;;;2.00;1.90;;;18.90;99.90;;;;;;5074612;28;20168;-68
2023/07/01 09:02:33;;;;;;;2.20;2.00;;;19.00;99.90;;;;;;5074707;28;20165;-69
2023/07/01 09:04:59;;;;;;;2.40;2.30;;;19.10;99.90;;;;;;5074009;28;20259;-68
2023/07/01 09:07:25;;;;;;;3.45;2.60;;;19.20;99.90;;;;;;5073982;28;20649;-68
2023/07/01 09:09:51;;;;;;;2.65;2.45;;;19.40;99.90;;;;;;5074638;28;20188;-68
2023/07/01 09:12:16;;;;;;;2.47;2.28;;;19.80;99.90;;;;;;5074321;28;20195;-68
2023/07/01 09:14:57;;;;;;;2.60;2.40;;;20.30;99.90;;;;;;5074651;28;20174;-69
2023/07/01 09:17:44;;;;;;;2.60;2.50;;;20.90;99.90;;;;;;5074075;28;20168;-69
2023/07/01 09:20:12;;;;;;;2.30;2.20;;;21.30;99.90;;;;;;5073566;28;20226;-68
2023/07/01 09:22:43;;;;;;;2.30;2.10;;;21.80;99.90;;;;;;5056031;28;20632;-69
2023/07/01 09:25:24;;;;;;;2.30;2.00;;;22.50;98.60;;;;;;5056214;28;20567;-69
2023/07/01 09:27:49;;;;;;;2.20;2.10;;;22.70;92.80;;;;;;5074050;28;20287;-69
2023/07/01 09:30:28;;;;;;;2.28;2.17;;;22.70;61.10;;;;;;5073660;28;20204;-68
2023/07/01 09:33:15;;;;;;;2.17;2.08;;;22.30;68.20;;;;;;5073551;28;20184;-68
2023/07/01 09:35:45;;;;;;;2.30;2.20;;;22.10;91.80;;;;;;5073864;28;20627;-68
2023/07/01 09:38:11;;;;;;;2.42;2.33;;;21.80;96.70;;;;;;5073814;28;20228;-68
2023/07/01 09:40:37;;;;;;;2.30;2.20;;;21.90;95.10;;;;;;5073866;28;20192;-67
2023/07/01 09:43:02;;;;;;;2.55;2.35;;;21.90;90.50;;;;;;5073510;28;20574;-68
2023/07/01 09:45:28;;;;;;;2.40;2.30;;;21.80;92.00;;;;;;5073960;28;20670;-70
2023/07/01 09:47:53;;;;;;;2.58;2.30;;;22.00;88.20;;;;;;5073042;28;20207;-69
2023/07/01 09:50:28;;;;;;;2.53;2.38;;;22.20;90.80;;;;;;5073324;28;20622;-69
2023/07/01 09:52:55;;;;;;;2.35;2.20;;;22.40;57.40;;;;;;5073782;28;20180;-68
2023/07/01 09:55:21;;;;;;;2.15;2.00;;;22.20;69.30;;;;;;5073169;28;20169;-69
2023/07/01 09:57:47;;;;;;;2.10;2.00;;;22.40;55.80;;;;;;5073330;28;20183;-68
2023/07/01 10:00:15;;;;;;;3.17;2.45;;;22.50;61.70;;;;;;5073502;28;20165;-69
2023/07/01 10:02:46;;;;;;;1.75;1.65;;;22.70;53.80;;;;;;5073340;28;20180;-71
2023/07/01 10:05:13;;;;;;;2.17;2.00;;;22.70;41.70;;;;;;5073350;28;20169;-69
2023/07/01 10:07:39;;;;;;;2.38;2.15;;;22.80;37.70;;;;;;5073131;28;20211;-70
2023/07/01 10:10:13;;;;;;;2.53;2.33;;;23.30;34.70;;;;;;5073166;28;20173;-70
2023/07/01 10:12:41;;;;;;;2.35;2.20;;;23.60;28.60;;;;;;5072913;28;20173;-70
2023/07/01 10:15:10;;;;;;;2.70;2.50;;;24.00;8.20;;;;;;5073382;28;20644;-69
2023/07/01 10:17:50;;;;;;;2.30;2.13;;;23.80;21.30;;;;;;5072101;28;20184;-70
2023/07/01 10:20:29;;;;;;;2.28;2.08;;;23.60;24.00;;;;;;5073161;28;20211;-70
2023/07/01 10:22:55;;;;;;;3.30;2.15;;;23.90;20.10;;;;;;5073045;28;20203;-71
2023/07/01 10:25:47;;;;;;;2.92;2.08;;;24.90;1.00;;;;;;5072456;28;20169;-68
2023/07/01 10:28:14;;;;;;;1.92;1.83;;;25.20;1.00;;;;;;5067881;28;20649;-69
2023/07/01 10:30:45;;;;;;;2.03;1.83;;;25.60;1.00;;;;;;5073162;28;20193;-68
2023/07/01 10:33:30;;;;;;;2.60;1.98;;;25.60;1.00;;;;;;5072875;28;20176;-67
2023/07/01 10:36:01;;;;;;;4.10;2.20;;;25.80;1.00;;;;;;5072299;28;20187;-67
2023/07/01 10:38:30;;;;;;;2.30;1.88;;;26.00;1.00;;;;;;5072966;28;20220;-67
2023/07/01 10:40:56;;;;;;;5.45;2.28;;;25.60;1.00;;;;;;5070999;28;20165;-67
2023/07/01 10:43:33;;;;;;;3.65;2.40;;;24.30;1.00;;;;;;5072209;28;20180;-66
2023/07/01 10:46:19;;;;;;;2.65;2.25;;;23.90;18.70;;;;;;5072573;28;20168;-66
2023/07/01 10:49:03;;;;;;;3.67;2.20;;;22.80;45.10;;;;;;5072060;28;20208;-67
2023/07/01 10:51:32;;;;;;;4.10;2.30;;;22.40;64.00;;;;;;5072301;28;20172;-66
2023/07/01 10:54:03;;;;;;;5.90;2.80;;;22.30;68.40;;;;;;5072296;28;20200;-67
2023/07/01 10:56:34;;;;;;;3.17;2.47;;;22.60;60.80;;;;;;5072711;28;20172;-67
2023/07/01 10:59:22;;;;;;;4.25;2.17;;;23.10;36.10;;;;;;5072335;28;20160;-67
2023/07/01 11:01:56;;;;;;;2.47;2.25;;;23.50;24.20;;;;;;5072539;28;20207;-69
2023/07/01 11:04:22;;;;;;;3.63;2.25;;;23.80;21.80;;;;;;5072008;28;20204;-70
2023/07/01 11:06:50;;;;;;;4.45;2.45;;;24.30;12.30;;;;;;5072294;28;20246;-68
2023/07/01 11:09:27;;;;;;;3.75;2.30;;;24.50;8.70;;;;;;5072732;28;20240;-69
2023/07/01 11:11:54;;;;;;;3.95;2.92;;;25.10;1.00;;;;;;5072038;28;20619;-68
2023/07/01 11:14:20;;;;;;;3.13;2.40;;;25.00;1.00;;;;;;5072070;28;20226;-69
2023/07/01 11:16:45;;;;;;;4.47;2.00;;;25.10;1.00;;;;;;5054426;28;20165;-69
2023/07/01 11:19:16;;;;;;;2.50;2.10;;;25.00;1.00;;;;;;5072270;28;20176;-68
2023/07/01 11:21:43;;;;;;;4.35;2.53;;;24.90;1.00;;;;;;5072401;28;20202;-69
2023/07/01 11:24:09;;;;;;;4.70;2.25;;;25.20;1.00;;;;;;5072194;28;20294;-69
2023/07/01 11:26:42;;;;;;;2.90;2.08;;;25.00;1.00;;;;;;5071644;28;20182;-68
2023/07/01 11:29:16;;;;;;;2.53;1.80;;;24.90;1.00;;;;;;5071979;28;20212;-69
2023/07/01 11:31:42;;;;;;;2.92;1.98;;;24.80;1.00;;;;;;5072431;28;20165;-69
2023/07/01 11:34:07;;;;;;;4.78;2.10;;;25.00;1.00;;;;;;5072106;28;20173;-69
2023/07/01 11:36:43;;;;;;;3.58;2.50;;;24.90;1.00;;;;;;5053788;28;20263;-68
2023/07/01 11:39:17;;;;;;;3.38;1.90;;;24.30;1.00;;;;;;5071041;28;20224;-69
2023/07/01 11:41:46;;;;;;;4.60;2.00;;;24.10;1.00;;;;;;5071365;28;20161;-68
2023/07/01 11:44:14;;;;;;;2.78;2.22;;;23.90;3.50;;;;;;5071803;28;20199;-66
2023/07/01 11:46:42;;;;;;;3.70;2.20;;;23.50;10.00;;;;;;5072325;28;20200;-67
2023/07/01 11:49:14;;;;;;;2.97;2.08;;;23.20;14.00;;;;;;5071631;28;20208;-67
2023/07/01 11:51:51;;;;;;;2.55;2.00;;;23.10;20.00;;;;;;5071359;28;20168;-68
2023/07/01 11:54:19;;;;;;;1.98;1.73;;;23.10;19.50;;;;;;5075644;28;20243;-68
2023/07/01 11:56:46;;;;;;;1.75;1.65;;;23.20;8.20;;;;;;5075709;28;20172;-69
2023/07/01 11:59:29;;;;;;;3.70;1.85;;;23.40;8.30;;;;;;5074988;28;20177;-70
2023/07/01 12:01:54;;;;;;;2.38;1.50;;;23.60;1.00;;;;;;5075992;28;20173;-68
2023/07/01 12:04:20;;;;;;;1.80;1.45;;;23.90;1.00;;;;;;5075061;28;20680;-69
2023/07/01 12:06:46;;;;;;;3.20;1.52;;;23.90;1.00;;;;;;5075390;28;20165;-68
2023/07/01 12:09:26;;;;;;;3.00;1.30;;;24.10;1.00;;;;;;5075919;28;20204;-69
2023/07/01 12:11:52;;;;;;;1.77;1.55;;;24.10;1.00;;;;;;5075158;28;20176;-69
2023/07/01 12:14:22;;;;;;;1.65;1.55;;;24.10;1.00;;;;;;5075219;28;20165;-68
2023/07/01 12:16:49;;;;;;;1.60;1.50;;;24.00;1.00;;;;;;5075365;28;20533;-69
2023/07/01 12:19:20;;;;;;;2.75;1.80;;;24.10;1.00;;;;;;5075036;28;20183;-69
2023/07/01 12:21:46;;;;;;;2.05;1.30;;;24.00;1.00;;;;;;5075267;28;20183;-68
2023/07/01 12:24:24;;;;;;;1.92;1.30;;;23.90;1.00;;;;;;5075395;28;20164;-70
2023/07/01 12:26:53;;;;;;;2.38;1.38;;;23.80;1.00;;;;;;5074822;28;20164;-68
2023/07/01 12:29:18;;;;;;;2.67;1.40;;;23.60;1.00;;;;;;5075093;28;20200;-68
2023/07/01 12:31:44;;;;;;;1.55;1.45;;;23.60;1.00;;;;;;5074932;28;20172;-68
2023/07/01 12:34:10;;;;;;;1.42;1.33;;;23.60;1.00;;;;;;5074605;28;20225;-68
2023/07/01 12:36:36;;;;;;;1.40;1.30;;;23.30;3.80;;;;;;5074966;28;20164;-67
2023/07/01 12:39:03;;;;;;;2.75;1.40;;;23.20;3.90;;;;;;5075106;28;20361;-68
2023/07/01 12:41:30;;;;;;;2.15;1.40;;;22.90;9.60;;;;;;5074254;28;20680;-68
2023/07/01 12:43:57;;;;;;;2.13;1.60;;;22.80;12.90;;;;;;5074255;28;20184;-68
2023/07/01 12:46:23;;;;;;;1.98;1.40;;;22.60;20.00;;;;;;5074650;28;20219;-67
2023/07/01 12:48:49;;;;;;;3.03;1.50;;;22.50;14.50;;;;;;5074622;28;20208;-68
2023/07/01 12:51:15;;;;;;;1.98;1.27;;;22.60;13.80;;;;;;5074639;28;20168;-67